Abu Musa, Iran

12:37 PM IRST on October 22, 2014 (GMT +0330)
Abumusa | Change Station
CLOSE
Current Station
Airport
Location: ABUMUSA ISLAND,
Elevation: 23 ft
Nearby Weather Stations

Elev 23 ft 25.88 °N, 55.03 °E | Updated 7 minutes ago

Partly Cloudy
Partly Cloudy
90 °F
Feels Like 102 °F
N
7
Wind Variable Wind from NW

Today
High -- | Low -- °F
--% Chance of Precip.
Yesterday
High -- | Low -- °F
Precip. -- in
5:52 AM 5:17 PM
Waning Crescent, 2% visible
Pressure 29.92 in
Visibility 6.2 miles
Clouds Few 3000 ft
Heat Index 102 °F
Dew Point 77 °F
Humidity 66%
Rainfall 0.00 in
Snow Depth Not available.
UV 7 out of 12
Pollen Not available.
Air Quality Not available.
Flu Activity Not available.
METAR OIBA 220900Z 32006KT 9999 FEW030 32/25 Q1013

More Conditions Fewer Conditions

Pressure 29.92 in
Visibility 6.2 miles
Clouds Few 3000 ft
Heat Index 102 °F
Dew Point 77 °F
Humidity 66%
Rainfall 0.00 in
Snow Depth Not available.
UV 7 out of 12
Pollen Not available.
Air Quality Not available.
Flu Activity Not available.
METAR OIBA 220900Z 32006KT 9999 FEW030 32/25 Q1013

More Conditions Fewer Conditions

10-Day Weather Forecast

Almanac

Astronomy

Oct. 22, 2014 Rise Set
Actual Time 5:52 AM IRST 5:17 PM IRST
Civil Twilight 5:29 AM IRST 5:40 PM IRST
Nautical Twilight 5:02 AM IRST 6:07 PM IRST
Astronomical Twilight 4:35 AM IRST 6:34 PM IRST
Moon 4:20 AM IRST 4:23 PM IRST
Length of Visible Light 12h 10m
Length of Day
11h 24m
Tomorrow will be 1m 25s shorter.
Waning Crescent, 2% of the Moon is Illuminated
Today
Waning Crescent
Oct 23
New
Oct 30
First Quarter
Nov 6
Full
Nov 14
Last Quarter

Yesterday's Extremes

Country Highs Country Lows

Community

WunderPhotos

Upload Photos

1,763,900 photos uploaded!

Nearby

Snow Depth

Not available.

Earthquake Activity

City Distance Mag. Time & Date
No recent earthquake activity has been reported nearby.
Minimum magnitude displayed is 2.5.

Coastal Water Temperatures

Place Temperature
No Stations Reporting

Nearby Weather Stations